Time;durP1;ratioP1;P1;durP2;ratioP2;P2;SDS_P1;SDS_P2;PMS_P1;PMS_P2;Temp;Humidity;BMP_temperature;BMP_pressure;BME280_temperature;BME280_humidity;BME280_pressure;Samples;Min_cycle;Max_cycle;Signal;HPM_P1;HPM_P2
2022/04/14 00:01:34;;;;;;;;;;;23.10;44.90;;;;;;5070146;28;19923;-61
2022/04/14 00:03:59;;;;;;;;;;;23.00;44.90;;;;;;5079786;28;19924;-61
2022/04/14 00:06:25;;;;;;;;;;;23.00;44.90;;;;;;5091515;28;19914;-61
2022/04/14 00:08:52;;;;;;;;;;;23.00;45.10;;;;;;5081179;28;19966;-61
2022/04/14 00:11:17;;;;;;;;;;;23.00;45.20;;;;;;5081300;28;19931;-61
2022/04/14 00:13:43;;;;;;;;;;;23.00;45.80;;;;;;5086249;28;19916;-61
2022/04/14 00:16:08;;;;;;;;;;;23.00;45.10;;;;;;5070341;28;19924;-61
2022/04/14 00:18:34;;;;;;;;;;;23.00;45.20;;;;;;5069541;28;20294;-61
2022/04/14 00:20:59;;;;;;;;;;;23.00;45.20;;;;;;5081831;28;19912;-61
2022/04/14 00:23:25;;;;;;;;;;;23.00;45.10;;;;;;5089451;28;19916;-61
2022/04/14 00:25:51;;;;;;;;;;;23.00;45.30;;;;;;5071111;28;19924;-61
2022/04/14 00:28:17;;;;;;;;;;;23.00;45.20;;;;;;5066615;28;19924;-61
2022/04/14 00:30:42;;;;;;;;;;;23.00;45.20;;;;;;5069925;28;19916;-61
2022/04/14 00:33:08;;;;;;;;;;;23.00;45.40;;;;;;5076772;28;20281;-61
2022/04/14 00:35:33;;;;;;;;;;;23.00;45.30;;;;;;5077094;28;20014;-61
2022/04/14 00:37:59;;;;;;;;;;;23.00;45.40;;;;;;5086537;28;19981;-61
2022/04/14 00:40:24;;;;;;;;;;;22.90;45.20;;;;;;5084406;28;20425;-61
2022/04/14 00:42:50;;;;;;;;;;;22.90;45.50;;;;;;5081373;28;19938;-61
2022/04/14 00:45:15;;;;;;;;;;;22.90;45.60;;;;;;5077934;28;19942;-61
2022/04/14 00:47:41;;;;;;;;;;;22.90;45.50;;;;;;5081750;28;19912;-61
2022/04/14 00:50:07;;;;;;;;;;;22.90;45.70;;;;;;5086034;28;20019;-61
2022/04/14 00:52:32;;;;;;;;;;;22.80;45.60;;;;;;5058391;28;20273;-61
2022/04/14 00:54:58;;;;;;;;;;;22.80;45.60;;;;;;5072820;28;19917;-62
2022/04/14 00:57:23;;;;;;;;;;;22.80;45.70;;;;;;5088401;28;19908;-62
2022/04/14 00:59:48;;;;;;;;;;;22.80;45.60;;;;;;5068559;28;19927;-61
2022/04/14 01:02:14;;;;;;;;;;;22.90;45.80;;;;;;5081727;28;19920;-61
2022/04/14 01:04:40;;;;;;;;;;;22.90;45.60;;;;;;5077113;28;19916;-61
2022/04/14 01:07:06;;;;;;;;;;;22.80;45.60;;;;;;5080012;28;20003;-61
2022/04/14 01:09:31;;;;;;;;;;;22.90;45.90;;;;;;5070926;28;20006;-61
2022/04/14 01:11:57;;;;;;;;;;;22.90;46.00;;;;;;5078048;28;19919;-61
2022/04/14 01:14:29;;;;;;;;;;;22.80;45.90;;;;;;5080261;28;20427;-61
2022/04/14 01:16:55;;;;;;;;;;;22.80;45.90;;;;;;5066944;28;19916;-61
2022/04/14 01:19:21;;;;;;;;;;;22.80;46.00;;;;;;5062092;28;20356;-61
2022/04/14 01:21:53;;;;;;;;;;;22.80;46.00;;;;;;5074888;28;19925;-61
2022/04/14 01:24:18;;;;;;;;;;;22.80;46.10;;;;;;5084253;28;20337;-61
2022/04/14 01:26:44;;;;;;;;;;;22.80;46.10;;;;;;5082426;28;19916;-61
2022/04/14 01:29:22;;;;;;;;;;;22.70;46.10;;;;;;5081321;28;19966;-61
2022/04/14 01:31:48;;;;;;;;;;;22.80;46.30;;;;;;5074082;28;19916;-61
2022/04/14 01:34:14;;;;;;;;;;;22.80;46.20;;;;;;5085850;28;19912;-61
2022/04/14 01:36:39;;;;;;;;;;;22.70;46.40;;;;;;5075484;28;19919;-61
2022/04/14 01:39:05;;;;;;;;;;;22.70;46.30;;;;;;5081510;28;20317;-61
2022/04/14 01:41:30;;;;;;;;;;;22.70;46.40;;;;;;5080571;28;19912;-61
2022/04/14 01:43:55;;;;;;;;;;;22.70;46.30;;;;;;5087662;28;19927;-61
2022/04/14 01:46:21;;;;;;;;;;;22.70;46.50;;;;;;5073542;28;19937;-61
2022/04/14 01:48:47;;;;;;;;;;;22.70;46.40;;;;;;5086825;28;19946;-61
2022/04/14 01:51:12;;;;;;;;;;;22.70;46.20;;;;;;5073681;28;19960;-61
2022/04/14 01:53:38;;;;;;;;;;;22.70;46.50;;;;;;5086479;28;20322;-61
2022/04/14 01:56:03;;;;;;;;;;;22.70;46.40;;;;;;5086658;28;19923;-62
2022/04/14 01:58:29;;;;;;;;;;;22.70;46.40;;;;;;5089064;28;19917;-61
2022/04/14 02:00:54;;;;;;;;;;;22.70;46.60;;;;;;5073489;28;19966;-61
2022/04/14 02:03:19;;;;;;;;;;;22.70;46.60;;;;;;5092266;28;19915;-61
2022/04/14 02:05:45;;;;;;;;;;;22.70;46.70;;;;;;5087790;28;19959;-61
2022/04/14 02:08:10;;;;;;;;;;;22.70;46.70;;;;;;5084398;28;19912;-61
2022/04/14 02:10:36;;;;;;;;;;;22.70;46.70;;;;;;5075663;28;19916;-61
2022/04/14 02:13:01;;;;;;;;;;;22.70;46.70;;;;;;5089765;28;19915;-61
2022/04/14 02:15:27;;;;;;;;;;;22.70;46.70;;;;;;5085322;28;19920;-61
2022/04/14 02:17:52;;;;;;;;;;;22.70;46.70;;;;;;5086253;28;20367;-61
2022/04/14 02:20:18;;;;;;;;;;;22.70;46.70;;;;;;5084617;28;20272;-61
2022/04/14 02:22:43;;;;;;;;;;;22.60;46.60;;;;;;5087304;28;19981;-61
2022/04/14 02:25:09;;;;;;;;;;;22.60;46.60;;;;;;5084667;28;19917;-61
2022/04/14 02:27:34;;;;;;;;;;;22.60;46.60;;;;;;5080371;28;19923;-61
2022/04/14 02:29:59;;;;;;;;;;;22.70;46.70;;;;;;5077465;28;20024;-61
2022/04/14 02:32:25;;;;;;;;;;;22.60;46.60;;;;;;5084293;28;20399;-61
2022/04/14 02:34:50;;;;;;;;;;;22.60;46.60;;;;;;5081572;28;20391;-61
2022/04/14 02:37:16;;;;;;;;;;;22.60;46.60;;;;;;5081531;28;20335;-61
2022/04/14 02:39:41;;;;;;;;;;;22.60;46.60;;;;;;5070978;28;19916;-61
2022/04/14 02:42:07;;;;;;;;;;;22.60;46.60;;;;;;5073680;28;19913;-61
2022/04/14 02:44:32;;;;;;;;;;;22.60;46.60;;;;;;5080441;28;20443;-61
2022/04/14 02:46:58;;;;;;;;;;;22.60;46.60;;;;;;5083273;28;20019;-61
2022/04/14 02:49:23;;;;;;;;;;;22.60;46.60;;;;;;5080218;28;19916;-60
2022/04/14 02:51:49;;;;;;;;;;;22.60;46.60;;;;;;5068491;28;19916;-61
2022/04/14 02:54:14;;;;;;;;;;;22.60;46.60;;;;;;5068869;28;19924;-61
2022/04/14 02:56:40;;;;;;;;;;;22.50;46.60;;;;;;5080840;28;19916;-61
2022/04/14 02:59:05;;;;;;;;;;;22.60;46.60;;;;;;5082653;28;19909;-61
2022/04/14 03:01:31;;;;;;;;;;;22.60;46.60;;;;;;5072931;28;19913;-61
2022/04/14 03:03:56;;;;;;;;;;;22.60;46.70;;;;;;5092459;28;19918;-61
2022/04/14 03:06:22;;;;;;;;;;;22.60;46.60;;;;;;5085615;28;19915;-61
2022/04/14 03:08:47;;;;;;;;;;;22.60;46.60;;;;;;5089807;28;19915;-61
2022/04/14 03:11:13;;;;;;;;;;;22.60;46.60;;;;;;5080450;28;19917;-61
2022/04/14 03:13:38;;;;;;;;;;;22.50;46.70;;;;;;5088243;28;20474;-61
2022/04/14 03:16:04;;;;;;;;;;;22.50;46.60;;;;;;5077655;28;19966;-61
2022/04/14 03:18:30;;;;;;;;;;;22.50;46.90;;;;;;5087294;28;19916;-61
2022/04/14 03:20:55;;;;;;;;;;;22.50;47.00;;;;;;5082663;28;19955;-61
2022/04/14 03:23:20;;;;;;;;;;;22.50;46.50;;;;;;5084642;28;19961;-61
2022/04/14 03:25:46;;;;;;;;;;;22.50;46.70;;;;;;5079141;28;19917;-61
2022/04/14 03:28:11;;;;;;;;;;;22.50;46.80;;;;;;5072515;28;19920;-61
2022/04/14 03:30:37;;;;;;;;;;;22.50;46.90;;;;;;5086925;28;20018;-61
2022/04/14 03:33:02;;;;;;;;;;;22.50;46.80;;;;;;5077670;28;19915;-61
2022/04/14 03:35:28;;;;;;;;;;;22.50;46.70;;;;;;5090754;28;19912;-61
2022/04/14 03:37:53;;;;;;;;;;;22.50;46.90;;;;;;5081255;28;20384;-61
2022/04/14 03:40:19;;;;;;;;;;;22.50;46.70;;;;;;5077160;28;19924;-61
2022/04/14 03:42:44;;;;;;;;;;;22.50;47.00;;;;;;5075216;28;19916;-61
2022/04/14 03:45:10;;;;;;;;;;;22.50;46.80;;;;;;5090565;28;19999;-61
2022/04/14 03:47:36;;;;;;;;;;;22.50;46.90;;;;;;5082270;28;19912;-61
2022/04/14 03:50:01;;;;;;;;;;;22.50;46.80;;;;;;5089557;28;19920;-61
2022/04/14 03:52:27;;;;;;;;;;;22.50;46.90;;;;;;5075423;28;19916;-61
2022/04/14 03:54:52;;;;;;;;;;;22.40;46.90;;;;;;5067849;28;19920;-61
2022/04/14 03:57:18;;;;;;;;;;;22.40;47.00;;;;;;5079003;28;20439;-62
2022/04/14 03:59:43;;;;;;;;;;;22.40;47.00;;;;;;5088530;28;19923;-61
2022/04/14 04:02:09;;;;;;;;;;;22.40;47.30;;;;;;5088657;28;20430;-61
2022/04/14 04:04:34;;;;;;;;;;;22.40;46.70;;;;;;5080634;28;20318;-61
2022/04/14 04:07:00;;;;;;;;;;;22.40;47.00;;;;;;5081063;28;20015;-61
2022/04/14 04:09:26;;;;;;;;;;;22.40;47.00;;;;;;5082707;28;19935;-61
2022/04/14 04:11:55;;;;;;;;;;;22.40;47.00;;;;;;5076925;28;19974;-61
2022/04/14 04:14:21;;;;;;;;;;;22.40;47.10;;;;;;5067375;28;19938;-61
2022/04/14 04:16:46;;;;;;;;;;;22.40;47.20;;;;;;5076061;28;19939;-60
2022/04/14 04:19:12;;;;;;;;;;;22.40;47.00;;;;;;5076091;28;19995;-61
2022/04/14 04:21:37;;;;;;;;;;;22.40;47.20;;;;;;5086817;28;19938;-61
2022/04/14 04:24:03;;;;;;;;;;;22.40;46.90;;;;;;5081624;28;19958;-61
2022/04/14 04:26:28;;;;;;;;;;;22.40;47.00;;;;;;5075938;28;19962;-61
2022/04/14 04:28:54;;;;;;;;;;;22.40;46.90;;;;;;5090521;28;19912;-61
2022/04/14 04:31:19;;;;;;;;;;;22.40;46.90;;;;;;5082064;28;19917;-61
2022/04/14 04:33:45;;;;;;;;;;;22.40;46.80;;;;;;5080662;28;19912;-61
2022/04/14 04:36:11;;;;;;;;;;;22.30;47.10;;;;;;5083115;28;19952;-61
2022/04/14 04:38:36;;;;;;;;;;;22.40;47.00;;;;;;5078993;28;19952;-61
2022/04/14 04:41:02;;;;;;;;;;;22.30;47.00;;;;;;5075176;28;19939;-61
2022/04/14 04:43:27;;;;;;;;;;;22.30;47.10;;;;;;5078216;28;19981;-61
2022/04/14 04:45:53;;;;;;;;;;;22.40;47.20;;;;;;5090418;28;19916;-61
2022/04/14 04:48:18;;;;;;;;;;;22.30;47.10;;;;;;5081763;28;20014;-61
2022/04/14 04:50:44;;;;;;;;;;;22.30;46.50;;;;;;5079606;28;19913;-61
2022/04/14 04:53:09;;;;;;;;;;;22.30;47.10;;;;;;5066810;28;19959;-61
2022/04/14 04:55:35;;;;;;;;;;;22.30;47.00;;;;;;5081722;28;19913;-62
2022/04/14 04:58:00;;;;;;;;;;;22.30;47.00;;;;;;5070515;28;19912;-61
2022/04/14 05:00:25;;;;;;;;;;;22.30;47.10;;;;;;5070986;28;19909;-61
2022/04/14 05:02:51;;;;;;;;;;;22.30;47.10;;;;;;5077039;28;19912;-61
2022/04/14 05:05:17;;;;;;;;;;;22.30;47.20;;;;;;5084210;28;19994;-62
2022/04/14 05:07:43;;;;;;;;;;;22.30;47.10;;;;;;5072423;28;19920;-61
2022/04/14 05:10:08;;;;;;;;;;;22.30;47.10;;;;;;5076079;28;19912;-61
2022/04/14 05:12:34;;;;;;;;;;;22.30;47.20;;;;;;5075848;28;19916;-61
2022/04/14 05:14:59;;;;;;;;;;;22.30;47.10;;;;;;5079279;28;20303;-61
2022/04/14 05:17:25;;;;;;;;;;;22.20;47.20;;;;;;5072029;28;19916;-61
2022/04/14 05:19:50;;;;;;;;;;;22.20;47.00;;;;;;5075141;28;19920;-61
2022/04/14 05:22:15;;;;;;;;;;;22.30;47.20;;;;;;5089347;28;20340;-61
2022/04/14 05:24:41;;;;;;;;;;;22.30;47.00;;;;;;5089299;28;19912;-62
2022/04/14 05:27:06;;;;;;;;;;;22.20;47.10;;;;;;5079274;28;20020;-62
2022/04/14 05:29:35;;;;;;;;;;;22.20;47.10;;;;;;5078767;28;20414;-61
2022/04/14 05:32:00;;;;;;;;;;;22.20;47.00;;;;;;5078342;28;19955;-62
2022/04/14 05:34:26;;;;;;;;;;;22.20;47.00;;;;;;5080181;28;19958;-62
2022/04/14 05:36:52;;;;;;;;;;;22.20;47.10;;;;;;5078320;28;19919;-62
2022/04/14 05:39:17;;;;;;;;;;;22.20;47.20;;;;;;5069837;28;20355;-61
2022/04/14 05:41:43;;;;;;;;;;;22.20;47.30;;;;;;5073921;28;20491;-62
2022/04/14 05:44:08;;;;;;;;;;;22.20;47.30;;;;;;5076808;28;19932;-62
2022/04/14 05:46:34;;;;;;;;;;;22.20;47.30;;;;;;5079026;28;19922;-62
2022/04/14 05:48:59;;;;;;;;;;;22.20;47.40;;;;;;5076480;28;20364;-61
2022/04/14 05:51:25;;;;;;;;;;;22.20;47.40;;;;;;5071847;28;19908;-61
2022/04/14 05:53:51;;;;;;;;;;;22.20;48.10;;;;;;5084776;28;19909;-61
2022/04/14 05:56:17;;;;;;;;;;;22.20;47.40;;;;;;5076695;28;19916;-61
2022/04/14 05:58:43;;;;;;;;;;;22.10;47.40;;;;;;5077998;28;20386;-61
2022/04/14 06:01:08;;;;;;;;;;;22.10;47.50;;;;;;5079046;28;19912;-61
2022/04/14 06:03:34;;;;;;;;;;;22.20;47.70;;;;;;5085865;28;20315;-61
2022/04/14 06:05:59;;;;;;;;;;;22.20;47.70;;;;;;5073962;28;19924;-61
2022/04/14 06:08:25;;;;;;;;;;;22.10;47.70;;;;;;5070885;28;19913;-61
2022/04/14 06:10:50;;;;;;;;;;;22.10;47.50;;;;;;5072185;28;19924;-61
2022/04/14 06:13:16;;;;;;;;;;;22.10;47.70;;;;;;5073736;28;19920;-61
2022/04/14 06:15:41;;;;;;;;;;;22.10;47.80;;;;;;5076253;28;19999;-62
2022/04/14 06:18:07;;;;;;;;;;;22.10;47.80;;;;;;5088916;28;19912;-61
2022/04/14 06:20:32;;;;;;;;;;;22.10;47.90;;;;;;5088099;28;19916;-61
2022/04/14 06:22:58;;;;;;;;;;;22.10;47.90;;;;;;5077060;28;19916;-62
2022/04/14 06:25:24;;;;;;;;;;;22.10;48.00;;;;;;5075395;28;19916;-61
2022/04/14 06:27:50;;;;;;;;;;;22.10;48.00;;;;;;5083140;28;19965;-61
2022/04/14 06:30:16;;;;;;;;;;;22.10;48.10;;;;;;5092230;28;19926;-61
2022/04/14 06:32:41;;;;;;;;;;;22.00;47.80;;;;;;5081762;28;19909;-61
2022/04/14 06:35:07;;;;;;;;;;;22.00;47.90;;;;;;5092806;28;19931;-61
2022/04/14 06:37:36;;;;;;;;;;;22.00;48.10;;;;;;5094014;28;19953;-61
2022/04/14 06:40:02;;;;;;;;;;;22.10;48.10;;;;;;5070220;28;20007;-61
2022/04/14 06:42:27;;;;;;;;;;;22.10;48.20;;;;;;5075290;28;19924;-61
2022/04/14 06:44:57;;;;;;;;;;;22.10;48.30;;;;;;5066035;28;19924;-62
2022/04/14 06:47:22;;;;;;;;;;;22.10;47.90;;;;;;5076532;28;20401;-62
2022/04/14 06:49:48;;;;;;;;;;;22.00;48.30;;;;;;5075895;28;19962;-62
2022/04/14 06:52:14;;;;;;;;;;;22.10;48.30;;;;;;5071308;28;20364;-63
2022/04/14 06:54:39;;;;;;;;;;;22.30;48.20;;;;;;5073643;28;20003;-61
2022/04/14 06:57:05;;;;;;;;;;;22.60;47.70;;;;;;5084576;28;20144;-62
2022/04/14 06:59:30;;;;;;;;;;;23.00;46.90;;;;;;5076946;28;19917;-61
2022/04/14 07:01:56;;;;;;;;;;;23.40;46.40;;;;;;5076466;28;20432;-62
2022/04/14 07:04:21;;;;;;;;;;;23.80;45.60;;;;;;5085804;28;20292;-61
2022/04/14 07:06:47;;;;;;;;;;;24.10;45.00;;;;;;5083137;28;19943;-62
2022/04/14 07:09:12;;;;;;;;;;;24.40;44.60;;;;;;5076084;28;20027;-62
2022/04/14 07:11:38;;;;;;;;;;;24.50;44.20;;;;;;5087650;28;20296;-60
2022/04/14 07:14:03;;;;;;;;;;;24.70;44.10;;;;;;5088006;28;19916;-61
2022/04/14 07:16:29;;;;;;;;;;;24.70;43.80;;;;;;5080888;28;20007;-61
2022/04/14 07:18:54;;;;;;;;;;;24.80;43.70;;;;;;5079965;28;19970;-63
2022/04/14 07:21:19;;;;;;;;;;;24.80;43.50;;;;;;5085915;28;19939;-63
2022/04/14 07:23:45;;;;;;;;;;;24.80;43.50;;;;;;5081900;28;20231;-62
2022/04/14 07:26:10;;;;;;;;;;;24.80;43.60;;;;;;5080825;28;19919;-62
2022/04/14 07:28:36;;;;;;;;;;;24.80;43.50;;;;;;5085036;28;19957;-62
2022/04/14 07:31:02;;;;;;;;;;;24.80;43.50;;;;;;5085831;28;19919;-63
2022/04/14 07:33:27;;;;;;;;;;;24.80;43.60;;;;;;5081985;28;20368;-62
2022/04/14 07:35:53;;;;;;;;;;;24.70;43.60;;;;;;5078840;28;19943;-63
2022/04/14 07:38:18;;;;;;;;;;;24.60;43.70;;;;;;5075674;28;20749;-60
2022/04/14 07:40:44;;;;;;;;;;;24.60;43.80;;;;;;5087548;28;20402;-61
2022/04/14 07:43:10;;;;;;;;;;;24.70;43.80;;;;;;5085489;28;20003;-62
2022/04/14 07:45:35;;;;;;;;;;;24.70;43.60;;;;;;5069534;28;19947;-61
2022/04/14 07:48:01;;;;;;;;;;;24.70;43.50;;;;;;5074444;28;19916;-62
2022/04/14 07:50:26;;;;;;;;;;;24.70;43.60;;;;;;5084615;28;19916;-63
2022/04/14 07:52:56;;;;;;;;;;;24.70;43.70;;;;;;5077331;28;20002;-61
2022/04/14 07:55:25;;;;;;;;;;;24.70;43.70;;;;;;5080633;28;19912;-64
2022/04/14 07:57:51;;;;;;;;;;;24.60;43.80;;;;;;5077627;28;19926;-63
2022/04/14 08:00:17;;;;;;;;;;;24.60;43.80;;;;;;5083130;28;19912;-63
2022/04/14 08:02:53;;;;;;;;;;;24.50;43.80;;;;;;5072114;28;19912;-63
2022/04/14 08:05:38;;;;;;;;;;;24.40;44.00;;;;;;5069886;28;20005;-63
2022/04/14 08:08:04;;;;;;;;;;;24.40;44.00;;;;;;5070978;28;19916;-63
2022/04/14 08:10:29;;;;;;;;;;;24.30;44.10;;;;;;5069912;28;19916;-62
2022/04/14 08:12:55;;;;;;;;;;;24.30;44.20;;;;;;5079045;28;19909;-63
2022/04/14 08:15:20;;;;;;;;;;;24.30;44.30;;;;;;5077720;28;19974;-62
2022/04/14 08:17:46;;;;;;;;;;;24.20;44.30;;;;;;5080836;28;19948;-62
2022/04/14 08:20:12;;;;;;;;;;;24.20;44.30;;;;;;5078094;28;20386;-63
2022/04/14 08:22:43;;;;;;;;;;;24.20;44.40;;;;;;5081584;28;19921;-63
2022/04/14 08:25:09;;;;;;;;;;;24.20;44.40;;;;;;5079668;28;20414;-60
2022/04/14 08:27:34;;;;;;;;;;;24.10;44.40;;;;;;5079150;28;19916;-62
2022/04/14 08:30:00;;;;;;;;;;;24.20;44.60;;;;;;5080019;28;20414;-62
2022/04/14 08:32:26;;;;;;;;;;;24.20;44.50;;;;;;5075708;28;20379;-62
2022/04/14 08:34:51;;;;;;;;;;;24.20;44.50;;;;;;5070844;28;20307;-62
2022/04/14 08:37:16;;;;;;;;;;;24.20;44.50;;;;;;5086230;28;19912;-62
2022/04/14 08:39:42;;;;;;;;;;;24.20;44.50;;;;;;5074805;28;19923;-63
2022/04/14 08:42:09;;;;;;;;;;;24.20;44.50;;;;;;5082311;28;19978;-62
2022/04/14 08:44:35;;;;;;;;;;;24.20;44.50;;;;;;5076930;28;19924;-63
2022/04/14 08:47:01;;;;;;;;;;;24.20;44.60;;;;;;5086226;28;20452;-63
2022/04/14 08:49:27;;;;;;;;;;;24.20;44.50;;;;;;5076392;28;20075;-64
2022/04/14 08:51:52;;;;;;;;;;;24.20;44.50;;;;;;5080947;28;19919;-62
2022/04/14 08:54:19;;;;;;;;;;;24.20;44.50;;;;;;5069884;28;20007;-63
2022/04/14 08:56:46;;;;;;;;;;;24.20;44.40;;;;;;5074929;28;19951;-63
2022/04/14 08:59:12;;;;;;;;;;;24.20;44.50;;;;;;5073653;28;19912;-63
2022/04/14 09:01:38;;;;;;;;;;;24.20;44.50;;;;;;5074301;28;19912;-61
2022/04/14 09:04:04;;;;;;;;;;;24.20;44.50;;;;;;5067829;28;19924;-61
2022/04/14 09:06:30;;;;;;;;;;;24.20;44.50;;;;;;5065044;28;19924;-62
2022/04/14 09:08:56;;;;;;;;;;;24.10;44.50;;;;;;5071741;28;19938;-61
2022/04/14 09:11:22;;;;;;;;;;;24.10;44.50;;;;;;5080205;28;19962;-62
2022/04/14 09:13:47;;;;;;;;;;;24.20;44.50;;;;;;5084971;28;20156;-61
2022/04/14 09:16:13;;;;;;;;;;;24.20;44.60;;;;;;5068044;28;19956;-62
2022/04/14 09:18:38;;;;;;;;;;;24.10;44.50;;;;;;5073647;28;19927;-64
2022/04/14 09:21:04;;;;;;;;;;;24.10;44.50;;;;;;5073763;28;19923;-62
2022/04/14 09:23:30;;;;;;;;;;;24.10;44.50;;;;;;5073661;28;20002;-61
2022/04/14 09:26:06;;;;;;;;;;;24.10;44.50;;;;;;5078116;28;19912;-62
2022/04/14 09:28:31;;;;;;;;;;;24.10;44.60;;;;;;5070094;28;19920;-61
2022/04/14 09:30:57;;;;;;;;;;;24.10;44.60;;;;;;5075247;28;19912;-62
2022/04/14 09:33:23;;;;;;;;;;;24.20;44.70;;;;;;5082330;28;20314;-62
2022/04/14 09:36:07;;;;;;;;;;;24.10;44.50;;;;;;5082820;28;19916;-63
2022/04/14 09:38:59;;;;;;;;;;;24.20;44.60;;;;;;5074096;28;19920;-62
2022/04/14 09:41:40;;;;;;;;;;;24.20;44.60;;;;;;5055066;28;20395;-62
2022/04/14 09:44:09;;;;;;;;;;;24.10;44.50;;;;;;5068370;28;19927;-63
2022/04/14 09:46:35;;;;;;;;;;;24.20;44.60;;;;;;5068513;28;19916;-62
2022/04/14 09:49:07;;;;;;;;;;;24.20;44.60;;;;;;5068453;28;20425;-62
2022/04/14 09:51:33;;;;;;;;;;;24.30;44.60;;;;;;5089592;28;19958;-62
2022/04/14 09:54:15;;;;;;;;;;;24.30;44.50;;;;;;5083762;28;19920;-64
2022/04/14 09:56:56;;;;;;;;;;;24.30;44.40;;;;;;5081517;28;19923;-63
2022/04/14 09:59:22;;;;;;;;;;;24.30;44.40;;;;;;5073908;28;20030;-62
2022/04/14 10:01:48;;;;;;;;;;;24.30;44.30;;;;;;5081991;28;20014;-61
2022/04/14 10:04:29;;;;;;;;;;;24.30;44.40;;;;;;5085648;28;19912;-62
2022/04/14 10:07:08;;;;;;;;;;;24.30;44.40;;;;;;5079549;28;19912;-60
2022/04/14 10:09:35;;;;;;;;;;;24.30;44.50;;;;;;5081484;28;20257;-63
2022/04/14 10:12:01;;;;;;;;;;;24.20;44.50;;;;;;5075535;28;19935;-63
2022/04/14 10:14:26;;;;;;;;;;;24.30;44.60;;;;;;5073950;28;19959;-62
2022/04/14 10:16:52;;;;;;;;;;;24.20;44.50;;;;;;5077896;28;19966;-63
2022/04/14 10:19:17;;;;;;;;;;;24.20;44.50;;;;;;5080479;28;20237;-62
2022/04/14 10:21:43;;;;;;;;;;;24.20;44.50;;;;;;5085095;28;19935;-64
2022/04/14 10:24:09;;;;;;;;;;;24.10;44.50;;;;;;5066203;28;20275;-63
2022/04/14 10:26:37;;;;;;;;;;;24.10;44.60;;;;;;5082551;28;19918;-62
2022/04/14 10:29:03;;;;;;;;;;;24.10;44.70;;;;;;5078531;28;20288;-63
2022/04/14 10:31:30;;;;;;;;;;;24.10;44.70;;;;;;5067832;28;19916;-61
2022/04/14 10:33:55;;;;;;;;;;;24.00;44.70;;;;;;5071610;28;20332;-61
2022/04/14 10:36:21;;;;;;;;;;;24.00;44.70;;;;;;5089874;28;19959;-61
2022/04/14 10:38:46;;;;;;;;;;;24.00;44.80;;;;;;5076751;28;19913;-62
2022/04/14 10:41:22;;;;;;;;;;;23.90;44.80;;;;;;5080224;28;19909;-60
2022/04/14 10:43:47;;;;;;;;;;;23.90;44.90;;;;;;5075457;28;19928;-62
2022/04/14 10:46:15;;;;;;;;;;;23.90;45.00;;;;;;5084103;28;19915;-63
2022/04/14 10:48:40;;;;;;;;;;;23.90;45.10;;;;;;5079548;28;20371;-62
2022/04/14 10:51:23;;;;;;;;;;;23.80;45.10;;;;;;5079094;28;19912;-62
2022/04/14 10:53:55;;;;;;;;;;;23.80;45.20;;;;;;5081728;28;19916;-62
2022/04/14 10:56:44;;;;;;;;;;;23.80;45.20;;;;;;5073393;28;19920;-62
2022/04/14 10:59:13;;;;;;;;;;;23.70;45.20;;;;;;5081481;28;19977;-61
2022/04/14 11:01:48;;;;;;;;;;;23.70;45.40;;;;;;5076500;28;19913;-62
2022/04/14 11:04:29;;;;;;;;;;;23.60;45.40;;;;;;5072986;28;19919;-62
2022/04/14 11:07:13;;;;;;;;;;;23.60;45.60;;;;;;5075680;28;19916;-63
2022/04/14 11:09:45;;;;;;;;;;;23.50;45.60;;;;;;5075466;28;19913;-62
2022/04/14 11:12:32;;;;;;;;;;;23.50;45.70;;;;;;5079009;28;19960;-63
2022/04/14 11:15:01;;;;;;;;;;;23.40;45.80;;;;;;5088029;28;20018;-60
2022/04/14 11:17:37;;;;;;;;;;;23.40;45.90;;;;;;5062425;28;19995;-62
2022/04/14 11:20:12;;;;;;;;;;;23.40;45.80;;;;;;5073384;28;19919;-61
2022/04/14 11:22:56;;;;;;;;;;;23.40;46.50;;;;;;5070933;28;19939;-61
2022/04/14 11:25:49;;;;;;;;;;;23.40;45.90;;;;;;5075727;28;19916;-61
2022/04/14 11:28:26;;;;;;;;;;;23.40;45.80;;;;;;5082722;28;19924;-61
2022/04/14 11:30:58;;;;;;;;;;;23.40;45.80;;;;;;5084915;28;19955;-61
2022/04/14 11:33:25;;;;;;;;;;;23.40;45.70;;;;;;5077935;28;20305;-61
2022/04/14 11:35:51;;;;;;;;;;;23.40;45.70;;;;;;5070161;28;19951;-61
2022/04/14 11:38:35;;;;;;;;;;;23.40;45.80;;;;;;5075172;28;19959;-62
2022/04/14 11:41:01;;;;;;;;;;;23.50;45.70;;;;;;5070296;28;19944;-61
2022/04/14 11:43:26;;;;;;;;;;;23.50;45.70;;;;;;5073880;28;19971;-62
2022/04/14 11:45:52;;;;;;;;;;;23.50;45.70;;;;;;5058749;28;19927;-62
2022/04/14 11:48:17;;;;;;;;;;;23.50;45.60;;;;;;5062631;28;19912;-61
2022/04/14 11:50:42;;;;;;;;;;;23.50;45.50;;;;;;5075341;28;19919;-62
2022/04/14 11:53:09;;;;;;;;;;;23.50;45.50;;;;;;5086996;28;19916;-62
2022/04/14 11:55:38;;;;;;;;;;;23.40;45.70;;;;;;5070982;28;19920;-61
2022/04/14 11:58:04;;;;;;;;;;;23.40;45.70;;;;;;5065926;28;19938;-61
2022/04/14 12:00:29;;;;;;;;;;;23.50;45.50;;;;;;5076948;28;19913;-62
2022/04/14 12:02:59;;;;;;;;;;;23.70;45.40;;;;;;5083174;28;20445;-62
2022/04/14 12:05:25;;;;;;;;;;;23.90;45.20;;;;;;5073098;28;19943;-62
2022/04/14 12:07:50;;;;;;;;;;;24.00;45.00;;;;;;5070199;28;20426;-63
2022/04/14 12:10:15;;;;;;;;;;;24.10;44.90;;;;;;5068263;28;20300;-63
2022/04/14 12:12:41;;;;;;;;;;;24.10;44.80;;;;;;5075240;28;20308;-63
2022/04/14 12:15:06;;;;;;;;;;;24.10;44.50;;;;;;5073291;28;19924;-62
2022/04/14 12:17:33;;;;;;;;;;;24.10;44.60;;;;;;5076224;28;20002;-62
2022/04/14 12:19:59;;;;;;;;;;;24.10;44.70;;;;;;5075854;28;19921;-62
2022/04/14 12:22:26;;;;;;;;;;;24.10;44.70;;;;;;5069489;28;20658;-62
2022/04/14 12:24:55;;;;;;;;;;;24.00;44.60;;;;;;5068893;28;20273;-62
2022/04/14 12:27:23;;;;;;;;;;;24.00;44.70;;;;;;5081400;28;20390;-62
2022/04/14 12:29:52;;;;;;;;;;;24.00;44.80;;;;;;5070949;28;19916;-61
2022/04/14 12:32:18;;;;;;;;;;;23.90;44.80;;;;;;5071457;28;19912;-62
2022/04/14 12:34:44;;;;;;;;;;;23.80;44.80;;;;;;5070320;28;19920;-61
2022/04/14 12:37:13;;;;;;;;;;;23.80;44.90;;;;;;5082284;28;20437;-62
2022/04/14 12:39:54;;;;;;;;;;;23.80;45.00;;;;;;5072577;28;19923;-61
2022/04/14 12:42:22;;;;;;;;;;;23.80;44.90;;;;;;5074795;28;19928;-61
2022/04/14 12:44:48;;;;;;;;;;;23.80;44.80;;;;;;5066298;28;20024;-60
2022/04/14 12:47:14;;;;;;;;;;;23.90;44.60;;;;;;5072398;28;19970;-61
2022/04/14 12:49:41;;;;;;;;;;;24.00;44.50;;;;;;5079063;28;21357;-61
2022/04/14 12:52:07;;;;;;;;;;;24.10;44.30;;;;;;5081473;28;20318;-60
2022/04/14 12:54:34;;;;;;;;;;;24.10;44.10;;;;;;5069581;28;20384;-63
2022/04/14 12:56:59;;;;;;;;;;;24.30;44.10;;;;;;5080881;28;20391;-62
2022/04/14 12:59:25;;;;;;;;;;;24.30;44.00;;;;;;5078106;28;19920;-62
2022/04/14 13:01:54;;;;;;;;;;;24.30;43.70;;;;;;5081389;28;19908;-62
2022/04/14 13:04:21;;;;;;;;;;;24.30;43.70;;;;;;5085114;28;19961;-63
2022/04/14 13:06:59;;;;;;;;;;;24.40;43.60;;;;;;5073534;28;19917;-62
2022/04/14 13:09:25;;;;;;;;;;;24.50;43.60;;;;;;5074797;28;20433;-63
2022/04/14 13:11:50;;;;;;;;;;;24.50;43.50;;;;;;5081088;28;19924;-61
2022/04/14 13:14:19;;;;;;;;;;;24.50;43.40;;;;;;5077938;28;19912;-63
2022/04/14 13:16:45;;;;;;;;;;;24.60;43.50;;;;;;5071997;28;19920;-62
2022/04/14 13:19:10;;;;;;;;;;;24.60;43.30;;;;;;5077488;28;19912;-63
2022/04/14 13:21:36;;;;;;;;;;;24.60;43.20;;;;;;5078429;28;19916;-61
2022/04/14 13:24:01;;;;;;;;;;;24.60;43.20;;;;;;5081573;28;20007;-62
2022/04/14 13:26:27;;;;;;;;;;;24.60;43.30;;;;;;5091983;28;19912;-61
2022/04/14 13:28:52;;;;;;;;;;;24.60;43.30;;;;;;5083458;28;19924;-62
2022/04/14 13:31:18;;;;;;;;;;;24.60;43.20;;;;;;5082171;28;19966;-62
2022/04/14 13:33:43;;;;;;;;;;;24.60;43.20;;;;;;5090448;28;20003;-61
2022/04/14 13:36:09;;;;;;;;;;;24.60;43.20;;;;;;5081789;28;19916;-62
2022/04/14 13:38:34;;;;;;;;;;;24.70;43.30;;;;;;5080232;28;19912;-62
2022/04/14 13:40:59;;;;;;;;;;;24.70;43.20;;;;;;5079106;28;20296;-63
2022/04/14 13:43:25;;;;;;;;;;;24.70;43.20;;;;;;5093965;28;20351;-62
2022/04/14 13:45:50;;;;;;;;;;;24.70;43.20;;;;;;5075709;28;20025;-63
2022/04/14 13:48:16;;;;;;;;;;;24.70;43.20;;;;;;5083494;28;19912;-62
2022/04/14 13:50:43;;;;;;;;;;;24.70;43.20;;;;;;5082255;28;19908;-61
2022/04/14 13:53:10;;;;;;;;;;;24.80;43.20;;;;;;5090797;28;19912;-62
2022/04/14 13:55:37;;;;;;;;;;;24.80;43.10;;;;;;5078896;28;20038;-61
2022/04/14 13:58:05;;;;;;;;;;;25.00;43.10;;;;;;5084092;28;20402;-61
2022/04/14 14:00:31;;;;;;;;;;;25.10;42.90;;;;;;5087705;28;20260;-63
2022/04/14 14:02:56;;;;;;;;;;;25.10;42.60;;;;;;5090806;28;20003;-63
2022/04/14 14:05:22;;;;;;;;;;;25.20;42.50;;;;;;5085782;28;19939;-60
2022/04/14 14:07:48;;;;;;;;;;;25.40;42.30;;;;;;5084847;28;20019;-63
2022/04/14 14:10:14;;;;;;;;;;;25.50;42.00;;;;;;5081024;28;20418;-61
2022/04/14 14:12:39;;;;;;;;;;;25.70;41.70;;;;;;5080689;28;19916;-61
2022/04/14 14:15:06;;;;;;;;;;;25.80;41.50;;;;;;5075421;28;20018;-60